sensor_id;sensor_type;location;lat;lon;timestamp;P1;durP1;ratioP1;P2;durP2;ratioP2
24161;SDS011;12318;51.262;7.066;2023-04-02T00:04:05;8.10;;;7.30;;
24161;SDS011;12318;51.262;7.066;2023-04-02T00:07:33;8.38;;;7.22;;
24161;SDS011;12318;51.262;7.066;2023-04-02T00:09:54;7.93;;;7.22;;
24161;SDS011;12318;51.262;7.066;2023-04-02T00:12:22;7.93;;;6.88;;
24161;SDS011;12318;51.262;7.066;2023-04-02T00:14:52;6.72;;;6.05;;
24161;SDS011;12318;51.262;7.066;2023-04-02T00:17:19;6.00;;;5.40;;
24161;SDS011;12318;51.262;7.066;2023-04-02T00:19:59;6.43;;;5.82;;
24161;SDS011;12318;51.262;7.066;2023-04-02T00:22:31;6.15;;;5.55;;
24161;SDS011;12318;51.262;7.066;2023-04-02T00:24:59;5.70;;;5.10;;
24161;SDS011;12318;51.262;7.066;2023-04-02T00:27:29;6.22;;;5.25;;
24161;SDS011;12318;51.262;7.066;2023-04-02T00:29:55;7.57;;;6.88;;
24161;SDS011;12318;51.262;7.066;2023-04-02T00:32:27;7.40;;;6.70;;
24161;SDS011;12318;51.262;7.066;2023-04-02T00:34:57;7.38;;;6.68;;
24161;SDS011;12318;51.262;7.066;2023-04-02T00:37:24;7.72;;;6.57;;
24161;SDS011;12318;51.262;7.066;2023-04-02T00:40:07;6.50;;;5.75;;
24161;SDS011;12318;51.262;7.066;2023-04-02T00:42:57;8.57;;;7.70;;
24161;SDS011;12318;51.262;7.066;2023-04-02T00:45:26;7.93;;;7.13;;
24161;SDS011;12318;51.262;7.066;2023-04-02T00:47:55;6.95;;;6.35;;
24161;SDS011;12318;51.262;7.066;2023-04-02T00:50:25;7.82;;;5.90;;
24161;SDS011;12318;51.262;7.066;2023-04-02T00:52:56;6.55;;;5.95;;
24161;SDS011;12318;51.262;7.066;2023-04-02T00:55:24;6.65;;;6.05;;
24161;SDS011;12318;51.262;7.066;2023-04-02T00:57:57;7.53;;;6.13;;
24161;SDS011;12318;51.262;7.066;2023-04-02T01:00:43;7.32;;;6.47;;
24161;SDS011;12318;51.262;7.066;2023-04-02T01:05:47;7.75;;;7.05;;
24161;SDS011;12318;51.262;7.066;2023-04-02T01:14:05;6.03;;;5.43;;
24161;SDS011;12318;51.262;7.066;2023-04-02T01:22:31;4.68;;;4.05;;
24161;SDS011;12318;51.262;7.066;2023-04-02T01:25:15;5.25;;;4.80;;
24161;SDS011;12318;51.262;7.066;2023-04-02T01:27:54;6.30;;;5.70;;
24161;SDS011;12318;51.262;7.066;2023-04-02T01:30:25;6.82;;;6.13;;
24161;SDS011;12318;51.262;7.066;2023-04-02T01:32:51;7.18;;;6.47;;
24161;SDS011;12318;51.262;7.066;2023-04-02T01:35:18;8.07;;;7.15;;
24161;SDS011;12318;51.262;7.066;2023-04-02T01:37:51;7.75;;;7.03;;
24161;SDS011;12318;51.262;7.066;2023-04-02T01:40:46;9.15;;;7.63;;
24161;SDS011;12318;51.262;7.066;2023-04-02T01:43:45;11.43;;;9.80;;
24161;SDS011;12318;51.262;7.066;2023-04-02T01:46:28;13.25;;;11.05;;
24161;SDS011;12318;51.262;7.066;2023-04-02T01:48:56;11.93;;;9.05;;
24161;SDS011;12318;51.262;7.066;2023-04-02T01:51:38;10.18;;;8.57;;
24161;SDS011;12318;51.262;7.066;2023-04-02T01:54:05;10.60;;;8.93;;
24161;SDS011;12318;51.262;7.066;2023-04-02T01:56:32;12.30;;;10.73;;
24161;SDS011;12318;51.262;7.066;2023-04-02T01:58:59;19.95;;;16.35;;
24161;SDS011;12318;51.262;7.066;2023-04-02T02:01:32;19.67;;;16.05;;
24161;SDS011;12318;51.262;7.066;2023-04-02T02:04:03;16.95;;;14.65;;
24161;SDS011;12318;51.262;7.066;2023-04-02T02:06:29;22.25;;;17.38;;
24161;SDS011;12318;51.262;7.066;2023-04-02T02:08:57;20.05;;;16.55;;
24161;SDS011;12318;51.262;7.066;2023-04-02T02:11:28;18.08;;;14.77;;
24161;SDS011;12318;51.262;7.066;2023-04-02T02:13:57;13.38;;;11.77;;
24161;SDS011;12318;51.262;7.066;2023-04-02T02:16:30;11.75;;;9.55;;
24161;SDS011;12318;51.262;7.066;2023-04-02T02:19:05;12.57;;;11.00;;
24161;SDS011;12318;51.262;7.066;2023-04-02T02:21:47;9.40;;;8.05;;
24161;SDS011;12318;51.262;7.066;2023-04-02T02:30:10;8.40;;;7.60;;
24161;SDS011;12318;51.262;7.066;2023-04-02T02:32:40;8.45;;;7.13;;
24161;SDS011;12318;51.262;7.066;2023-04-02T02:35:28;8.35;;;7.00;;
24161;SDS011;12318;51.262;7.066;2023-04-02T02:37:56;7.20;;;6.28;;
24161;SDS011;12318;51.262;7.066;2023-04-02T02:40:35;7.20;;;6.50;;
24161;SDS011;12318;51.262;7.066;2023-04-02T02:43:08;7.03;;;6.22;;
24161;SDS011;12318;51.262;7.066;2023-04-02T02:45:37;7.88;;;7.07;;
24161;SDS011;12318;51.262;7.066;2023-04-02T02:48:07;8.38;;;7.40;;
24161;SDS011;12318;51.262;7.066;2023-04-02T02:53:04;11.43;;;10.23;;
24161;SDS011;12318;51.262;7.066;2023-04-02T02:58:16;14.98;;;11.65;;
24161;SDS011;12318;51.262;7.066;2023-04-02T03:00:44;13.82;;;10.68;;
24161;SDS011;12318;51.262;7.066;2023-04-02T03:03:13;11.48;;;10.30;;
24161;SDS011;12318;51.262;7.066;2023-04-02T03:08:15;12.15;;;10.88;;
24161;SDS011;12318;51.262;7.066;2023-04-02T03:13:24;12.20;;;10.35;;
24161;SDS011;12318;51.262;7.066;2023-04-02T03:21:46;12.43;;;10.55;;
24161;SDS011;12318;51.262;7.066;2023-04-02T03:27:25;12.48;;;10.70;;
24161;SDS011;12318;51.262;7.066;2023-04-02T03:32:50;12.20;;;10.60;;
24161;SDS011;12318;51.262;7.066;2023-04-02T03:35:23;13.48;;;10.52;;
24161;SDS011;12318;51.262;7.066;2023-04-02T03:38:19;13.18;;;11.13;;
24161;SDS011;12318;51.262;7.066;2023-04-02T03:43:26;11.82;;;10.60;;
24161;SDS011;12318;51.262;7.066;2023-04-02T03:45:59;13.27;;;8.77;;
24161;SDS011;12318;51.262;7.066;2023-04-02T03:48:50;11.65;;;9.02;;
24161;SDS011;12318;51.262;7.066;2023-04-02T03:51:22;12.23;;;10.27;;
24161;SDS011;12318;51.262;7.066;2023-04-02T03:54:04;12.57;;;11.10;;
24161;SDS011;12318;51.262;7.066;2023-04-02T03:56:37;15.13;;;12.23;;
24161;SDS011;12318;51.262;7.066;2023-04-02T04:01:41;17.20;;;13.70;;
24161;SDS011;12318;51.262;7.066;2023-04-02T04:04:13;16.30;;;13.57;;
24161;SDS011;12318;51.262;7.066;2023-04-02T04:06:43;18.63;;;15.02;;
24161;SDS011;12318;51.262;7.066;2023-04-02T04:11:59;21.10;;;16.05;;
24161;SDS011;12318;51.262;7.066;2023-04-02T04:14:31;15.27;;;13.68;;
24161;SDS011;12318;51.262;7.066;2023-04-02T04:19:41;16.10;;;14.40;;
24161;SDS011;12318;51.262;7.066;2023-04-02T04:22:14;17.20;;;14.80;;
24161;SDS011;12318;51.262;7.066;2023-04-02T04:24:39;18.88;;;14.90;;
24161;SDS011;12318;51.262;7.066;2023-04-02T04:30:12;14.90;;;11.73;;
24161;SDS011;12318;51.262;7.066;2023-04-02T04:32:54;17.25;;;13.95;;
24161;SDS011;12318;51.262;7.066;2023-04-02T04:38:11;16.55;;;12.98;;
24161;SDS011;12318;51.262;7.066;2023-04-02T04:40:49;19.35;;;14.80;;
24161;SDS011;12318;51.262;7.066;2023-04-02T04:43:24;17.33;;;13.52;;
24161;SDS011;12318;51.262;7.066;2023-04-02T04:45:58;17.88;;;13.60;;
24161;SDS011;12318;51.262;7.066;2023-04-02T04:51:08;14.35;;;11.20;;
24161;SDS011;12318;51.262;7.066;2023-04-02T04:53:47;16.05;;;12.05;;
24161;SDS011;12318;51.262;7.066;2023-04-02T04:56:20;19.02;;;14.32;;
24161;SDS011;12318;51.262;7.066;2023-04-02T05:01:20;22.08;;;17.27;;
24161;SDS011;12318;51.262;7.066;2023-04-02T05:06:36;24.00;;;16.50;;
24161;SDS011;12318;51.262;7.066;2023-04-02T05:14:50;18.92;;;16.02;;
24161;SDS011;12318;51.262;7.066;2023-04-02T05:17:24;26.00;;;17.92;;
24161;SDS011;12318;51.262;7.066;2023-04-02T05:20:13;20.92;;;17.23;;
24161;SDS011;12318;51.262;7.066;2023-04-02T05:26:02;23.67;;;18.10;;
24161;SDS011;12318;51.262;7.066;2023-04-02T05:28:42;25.85;;;18.30;;
24161;SDS011;12318;51.262;7.066;2023-04-02T05:31:36;28.08;;;19.45;;
24161;SDS011;12318;51.262;7.066;2023-04-02T05:34:13;29.05;;;21.15;;
24161;SDS011;12318;51.262;7.066;2023-04-02T05:36:49;31.27;;;21.00;;
24161;SDS011;12318;51.262;7.066;2023-04-02T05:39:15;31.05;;;22.83;;
24161;SDS011;12318;51.262;7.066;2023-04-02T05:41:47;32.55;;;22.77;;
24161;SDS011;12318;51.262;7.066;2023-04-02T05:44:25;34.55;;;23.30;;
24161;SDS011;12318;51.262;7.066;2023-04-02T05:46:58;29.38;;;22.10;;
24161;SDS011;12318;51.262;7.066;2023-04-02T05:52:22;31.35;;;21.00;;
24161;SDS011;12318;51.262;7.066;2023-04-02T05:54:55;29.00;;;20.98;;
24161;SDS011;12318;51.262;7.066;2023-04-02T05:57:33;21.15;;;14.82;;
24161;SDS011;12318;51.262;7.066;2023-04-02T06:00:04;24.98;;;13.82;;
24161;SDS011;12318;51.262;7.066;2023-04-02T06:02:41;20.95;;;14.02;;
24161;SDS011;12318;51.262;7.066;2023-04-02T06:05:18;22.00;;;15.25;;
24161;SDS011;12318;51.262;7.066;2023-04-02T06:07:55;17.52;;;13.50;;
24161;SDS011;12318;51.262;7.066;2023-04-02T06:10:26;18.75;;;11.15;;
24161;SDS011;12318;51.262;7.066;2023-04-02T06:15:27;18.95;;;13.85;;
24161;SDS011;12318;51.262;7.066;2023-04-02T06:17:58;22.88;;;14.48;;
24161;SDS011;12318;51.262;7.066;2023-04-02T06:20:24;20.60;;;13.02;;
24161;SDS011;12318;51.262;7.066;2023-04-02T06:22:51;23.63;;;14.23;;
24161;SDS011;12318;51.262;7.066;2023-04-02T06:25:32;20.73;;;14.35;;
24161;SDS011;12318;51.262;7.066;2023-04-02T06:28:03;23.85;;;14.05;;
24161;SDS011;12318;51.262;7.066;2023-04-02T06:30:35;19.00;;;13.35;;
24161;SDS011;12318;51.262;7.066;2023-04-02T06:33:04;17.55;;;11.13;;
24161;SDS011;12318;51.262;7.066;2023-04-02T06:35:37;21.17;;;13.82;;
24161;SDS011;12318;51.262;7.066;2023-04-02T06:38:06;19.10;;;13.27;;
24161;SDS011;12318;51.262;7.066;2023-04-02T06:40:45;19.25;;;13.60;;
24161;SDS011;12318;51.262;7.066;2023-04-02T06:46:08;18.50;;;12.88;;
24161;SDS011;12318;51.262;7.066;2023-04-02T06:49:16;20.20;;;13.00;;
24161;SDS011;12318;51.262;7.066;2023-04-02T06:51:47;20.38;;;13.60;;
24161;SDS011;12318;51.262;7.066;2023-04-02T06:54:16;21.45;;;12.20;;
24161;SDS011;12318;51.262;7.066;2023-04-02T06:56:46;18.83;;;11.85;;
24161;SDS011;12318;51.262;7.066;2023-04-02T06:59:15;23.02;;;13.25;;
24161;SDS011;12318;51.262;7.066;2023-04-02T07:04:37;22.52;;;12.98;;
24161;SDS011;12318;51.262;7.066;2023-04-02T07:07:03;19.85;;;12.25;;
24161;SDS011;12318;51.262;7.066;2023-04-02T07:09:29;15.50;;;11.23;;
24161;SDS011;12318;51.262;7.066;2023-04-02T07:11:55;20.65;;;12.00;;
24161;SDS011;12318;51.262;7.066;2023-04-02T07:14:20;17.58;;;12.05;;
24161;SDS011;12318;51.262;7.066;2023-04-02T07:16:46;20.42;;;12.10;;
24161;SDS011;12318;51.262;7.066;2023-04-02T07:19:17;18.35;;;11.98;;
24161;SDS011;12318;51.262;7.066;2023-04-02T07:21:50;19.27;;;12.35;;
24161;SDS011;12318;51.262;7.066;2023-04-02T07:24:15;18.55;;;11.90;;
24161;SDS011;12318;51.262;7.066;2023-04-02T07:26:41;17.35;;;11.23;;
24161;SDS011;12318;51.262;7.066;2023-04-02T07:29:08;14.65;;;9.90;;
24161;SDS011;12318;51.262;7.066;2023-04-02T07:31:38;13.77;;;9.00;;
24161;SDS011;12318;51.262;7.066;2023-04-02T07:34:05;15.60;;;10.30;;
24161;SDS011;12318;51.262;7.066;2023-04-02T07:36:32;17.55;;;10.40;;
24161;SDS011;12318;51.262;7.066;2023-04-02T07:38:58;16.63;;;7.68;;
24161;SDS011;12318;51.262;7.066;2023-04-02T07:41:24;17.83;;;10.18;;
24161;SDS011;12318;51.262;7.066;2023-04-02T07:43:50;20.52;;;10.18;;
24161;SDS011;12318;51.262;7.066;2023-04-02T07:46:16;19.33;;;11.20;;
24161;SDS011;12318;51.262;7.066;2023-04-02T07:48:44;18.33;;;10.07;;
24161;SDS011;12318;51.262;7.066;2023-04-02T07:51:18;16.38;;;10.15;;
24161;SDS011;12318;51.262;7.066;2023-04-02T07:53:45;16.42;;;11.07;;
24161;SDS011;12318;51.262;7.066;2023-04-02T07:56:15;19.80;;;11.85;;
24161;SDS011;12318;51.262;7.066;2023-04-02T07:58:43;17.83;;;11.70;;
24161;SDS011;12318;51.262;7.066;2023-04-02T08:01:22;17.83;;;11.27;;
24161;SDS011;12318;51.262;7.066;2023-04-02T08:03:49;17.03;;;11.13;;
24161;SDS011;12318;51.262;7.066;2023-04-02T08:06:16;17.40;;;10.85;;
24161;SDS011;12318;51.262;7.066;2023-04-02T08:08:42;20.27;;;11.38;;
24161;SDS011;12318;51.262;7.066;2023-04-02T08:11:08;18.23;;;10.23;;
24161;SDS011;12318;51.262;7.066;2023-04-02T08:13:35;19.17;;;10.10;;
24161;SDS011;12318;51.262;7.066;2023-04-02T08:16:01;18.08;;;10.60;;
24161;SDS011;12318;51.262;7.066;2023-04-02T08:18:28;21.08;;;10.80;;
24161;SDS011;12318;51.262;7.066;2023-04-02T08:20:54;19.35;;;10.50;;
24161;SDS011;12318;51.262;7.066;2023-04-02T08:23:21;19.13;;;10.20;;
24161;SDS011;12318;51.262;7.066;2023-04-02T08:25:47;15.95;;;10.43;;
24161;SDS011;12318;51.262;7.066;2023-04-02T08:28:14;17.15;;;10.52;;
24161;SDS011;12318;51.262;7.066;2023-04-02T08:30:40;13.75;;;7.90;;
24161;SDS011;12318;51.262;7.066;2023-04-02T08:33:07;18.75;;;9.25;;
24161;SDS011;12318;51.262;7.066;2023-04-02T08:35:33;15.48;;;9.52;;
24161;SDS011;12318;51.262;7.066;2023-04-02T08:37:59;18.92;;;10.48;;
24161;SDS011;12318;51.262;7.066;2023-04-02T08:48:17;12.88;;;7.95;;
24161;SDS011;12318;51.262;7.066;2023-04-02T08:50:43;16.77;;;8.45;;
24161;SDS011;12318;51.262;7.066;2023-04-02T08:53:12;14.73;;;6.03;;
24161;SDS011;12318;51.262;7.066;2023-04-02T09:01:25;12.05;;;6.85;;
24161;SDS011;12318;51.262;7.066;2023-04-02T09:04:02;12.40;;;7.22;;
24161;SDS011;12318;51.262;7.066;2023-04-02T09:06:37;11.10;;;6.57;;
24161;SDS011;12318;51.262;7.066;2023-04-02T09:09:03;10.85;;;5.88;;
24161;SDS011;12318;51.262;7.066;2023-04-02T09:14:12;13.57;;;6.55;;
24161;SDS011;12318;51.262;7.066;2023-04-02T09:16:49;13.18;;;5.72;;
24161;SDS011;12318;51.262;7.066;2023-04-02T09:19:30;8.75;;;4.97;;
24161;SDS011;12318;51.262;7.066;2023-04-02T09:22:07;10.27;;;6.00;;
24161;SDS011;12318;51.262;7.066;2023-04-02T09:24:43;11.15;;;5.25;;
24161;SDS011;12318;51.262;7.066;2023-04-02T09:27:22;10.23;;;4.30;;
24161;SDS011;12318;51.262;7.066;2023-04-02T09:29:52;11.57;;;5.38;;
24161;SDS011;12318;51.262;7.066;2023-04-02T09:35:13;9.05;;;5.20;;
24161;SDS011;12318;51.262;7.066;2023-04-02T09:38:32;9.35;;;4.75;;
24161;SDS011;12318;51.262;7.066;2023-04-02T09:43:29;8.25;;;5.53;;
24161;SDS011;12318;51.262;7.066;2023-04-02T09:48:44;10.48;;;5.53;;
24161;SDS011;12318;51.262;7.066;2023-04-02T09:51:18;14.68;;;5.88;;
24161;SDS011;12318;51.262;7.066;2023-04-02T09:56:19;11.75;;;5.10;;
24161;SDS011;12318;51.262;7.066;2023-04-02T10:01:40;9.35;;;5.00;;
24161;SDS011;12318;51.262;7.066;2023-04-02T10:04:29;13.50;;;4.35;;
24161;SDS011;12318;51.262;7.066;2023-04-02T10:07:55;7.10;;;4.45;;
24161;SDS011;12318;51.262;7.066;2023-04-02T10:09:58;6.93;;;4.72;;
24161;SDS011;12318;51.262;7.066;2023-04-02T10:12:26;10.82;;;5.00;;
24161;SDS011;12318;51.262;7.066;2023-04-02T10:15:00;11.13;;;5.03;;
24161;SDS011;12318;51.262;7.066;2023-04-02T10:17:29;8.55;;;4.30;;
24161;SDS011;12318;51.262;7.066;2023-04-02T10:22:53;9.10;;;4.78;;
24161;SDS011;12318;51.262;7.066;2023-04-02T10:25:20;12.70;;;5.15;;
24161;SDS011;12318;51.262;7.066;2023-04-02T10:40:59;9.07;;;3.88;;
24161;SDS011;12318;51.262;7.066;2023-04-02T10:43:34;11.93;;;4.32;;
24161;SDS011;12318;51.262;7.066;2023-04-02T10:46:13;8.35;;;4.30;;
24161;SDS011;12318;51.262;7.066;2023-04-02T10:48:51;10.30;;;4.85;;
24161;SDS011;12318;51.262;7.066;2023-04-02T10:51:30;10.80;;;4.82;;
24161;SDS011;12318;51.262;7.066;2023-04-02T10:56:52;8.13;;;4.47;;
24161;SDS011;12318;51.262;7.066;2023-04-02T10:59:25;8.35;;;3.33;;
24161;SDS011;12318;51.262;7.066;2023-04-02T11:01:54;6.60;;;3.85;;
24161;SDS011;12318;51.262;7.066;2023-04-02T11:04:24;9.50;;;4.05;;
24161;SDS011;12318;51.262;7.066;2023-04-02T11:06:59;7.60;;;4.03;;
24161;SDS011;12318;51.262;7.066;2023-04-02T11:09:30;9.52;;;4.20;;
24161;SDS011;12318;51.262;7.066;2023-04-02T11:11:58;7.57;;;4.30;;
24161;SDS011;12318;51.262;7.066;2023-04-02T11:14:27;11.20;;;4.35;;
24161;SDS011;12318;51.262;7.066;2023-04-02T11:16:55;8.10;;;3.90;;
24161;SDS011;12318;51.262;7.066;2023-04-02T11:24:44;7.97;;;3.85;;
24161;SDS011;12318;51.262;7.066;2023-04-02T11:35:26;9.77;;;3.33;;
24161;SDS011;12318;51.262;7.066;2023-04-02T11:46:02;8.60;;;3.13;;
24161;SDS011;12318;51.262;7.066;2023-04-02T11:48:50;7.47;;;3.15;;
24161;SDS011;12318;51.262;7.066;2023-04-02T11:53:48;7.22;;;2.95;;
24161;SDS011;12318;51.262;7.066;2023-04-02T12:01:28;8.80;;;3.00;;
24161;SDS011;12318;51.262;7.066;2023-04-02T12:10:03;9.00;;;3.25;;
24161;SDS011;12318;51.262;7.066;2023-04-02T12:12:39;5.35;;;2.45;;
24161;SDS011;12318;51.262;7.066;2023-04-02T12:18:39;5.32;;;1.85;;
24161;SDS011;12318;51.262;7.066;2023-04-02T12:20:50;6.40;;;2.70;;
24161;SDS011;12318;51.262;7.066;2023-04-02T12:23:18;6.87;;;2.67;;
24161;SDS011;12318;51.262;7.066;2023-04-02T12:25:54;5.75;;;2.30;;
24161;SDS011;12318;51.262;7.066;2023-04-02T12:28:27;5.75;;;2.40;;
24161;SDS011;12318;51.262;7.066;2023-04-02T12:31:10;3.75;;;2.30;;
24161;SDS011;12318;51.262;7.066;2023-04-02T12:33:41;5.95;;;2.40;;
24161;SDS011;12318;51.262;7.066;2023-04-02T12:38:48;3.58;;;2.10;;
24161;SDS011;12318;51.262;7.066;2023-04-02T12:41:27;4.53;;;2.22;;
24161;SDS011;12318;51.262;7.066;2023-04-02T12:44:04;4.88;;;2.33;;
24161;SDS011;12318;51.262;7.066;2023-04-02T12:46:36;8.25;;;2.63;;
24161;SDS011;12318;51.262;7.066;2023-04-02T12:49:07;7.45;;;2.90;;
24161;SDS011;12318;51.262;7.066;2023-04-02T12:51:52;11.93;;;3.00;;
24161;SDS011;12318;51.262;7.066;2023-04-02T12:54:18;5.55;;;2.20;;
24161;SDS011;12318;51.262;7.066;2023-04-02T12:56:45;5.93;;;2.42;;
24161;SDS011;12318;51.262;7.066;2023-04-02T13:05:08;5.13;;;2.53;;
24161;SDS011;12318;51.262;7.066;2023-04-02T13:07:35;7.03;;;2.60;;
24161;SDS011;12318;51.262;7.066;2023-04-02T13:10:03;3.97;;;2.35;;
24161;SDS011;12318;51.262;7.066;2023-04-02T13:12:47;7.40;;;2.10;;
24161;SDS011;12318;51.262;7.066;2023-04-02T13:15:20;5.50;;;2.53;;
24161;SDS011;12318;51.262;7.066;2023-04-02T13:18:34;5.82;;;2.30;;
24161;SDS011;12318;51.262;7.066;2023-04-02T13:20:38;8.80;;;2.10;;
24161;SDS011;12318;51.262;7.066;2023-04-02T13:23:47;6.82;;;2.53;;
24161;SDS011;12318;51.262;7.066;2023-04-02T13:25:54;7.32;;;2.40;;
24161;SDS011;12318;51.262;7.066;2023-04-02T13:28:25;3.55;;;2.10;;
24161;SDS011;12318;51.262;7.066;2023-04-02T13:30:52;4.65;;;2.00;;
24161;SDS011;12318;51.262;7.066;2023-04-02T13:33:18;5.03;;;2.75;;
24161;SDS011;12318;51.262;7.066;2023-04-02T13:35:44;4.93;;;2.30;;
24161;SDS011;12318;51.262;7.066;2023-04-02T13:38:10;8.70;;;2.30;;
24161;SDS011;12318;51.262;7.066;2023-04-02T13:40:36;6.65;;;2.40;;
24161;SDS011;12318;51.262;7.066;2023-04-02T13:43:03;5.72;;;2.30;;
24161;SDS011;12318;51.262;7.066;2023-04-02T13:45:35;4.20;;;2.33;;
24161;SDS011;12318;51.262;7.066;2023-04-02T13:48:02;6.70;;;2.30;;
24161;SDS011;12318;51.262;7.066;2023-04-02T13:50:29;4.45;;;2.40;;
24161;SDS011;12318;51.262;7.066;2023-04-02T13:52:57;4.03;;;2.05;;
24161;SDS011;12318;51.262;7.066;2023-04-02T13:55:29;6.78;;;2.28;;
24161;SDS011;12318;51.262;7.066;2023-04-02T13:57:59;4.73;;;1.73;;
24161;SDS011;12318;51.262;7.066;2023-04-02T14:00:25;5.38;;;2.15;;
24161;SDS011;12318;51.262;7.066;2023-04-02T14:03:02;2.67;;;1.70;;
24161;SDS011;12318;51.262;7.066;2023-04-02T14:11:04;7.03;;;2.35;;
24161;SDS011;12318;51.262;7.066;2023-04-02T14:31:37;9.90;;;2.10;;
24161;SDS011;12318;51.262;7.066;2023-04-02T14:42:33;4.50;;;1.60;;
24161;SDS011;12318;51.262;7.066;2023-04-02T14:45:08;4.72;;;1.55;;
24161;SDS011;12318;51.262;7.066;2023-04-02T14:47:45;5.85;;;1.70;;
24161;SDS011;12318;51.262;7.066;2023-04-02T14:50:19;4.40;;;1.67;;
24161;SDS011;12318;51.262;7.066;2023-04-02T14:52:53;4.78;;;1.65;;
24161;SDS011;12318;51.262;7.066;2023-04-02T14:57:51;4.45;;;1.80;;
24161;SDS011;12318;51.262;7.066;2023-04-02T15:00:39;5.40;;;2.10;;
24161;SDS011;12318;51.262;7.066;2023-04-02T15:05:47;3.08;;;1.60;;
24161;SDS011;12318;51.262;7.066;2023-04-02T15:08:19;3.47;;;1.83;;
24161;SDS011;12318;51.262;7.066;2023-04-02T15:11:03;6.28;;;1.88;;
24161;SDS011;12318;51.262;7.066;2023-04-02T15:13:35;3.15;;;1.75;;
24161;SDS011;12318;51.262;7.066;2023-04-02T15:16:07;4.97;;;1.90;;
24161;SDS011;12318;51.262;7.066;2023-04-02T15:18:38;3.40;;;1.85;;
24161;SDS011;12318;51.262;7.066;2023-04-02T15:23:40;5.28;;;1.90;;
24161;SDS011;12318;51.262;7.066;2023-04-02T15:28:57;3.85;;;1.80;;
24161;SDS011;12318;51.262;7.066;2023-04-02T15:31:35;6.32;;;2.03;;
24161;SDS011;12318;51.262;7.066;2023-04-02T15:36:47;9.20;;;1.73;;
24161;SDS011;12318;51.262;7.066;2023-04-02T15:42:17;3.50;;;1.92;;
24161;SDS011;12318;51.262;7.066;2023-04-02T15:44:54;4.95;;;2.40;;
24161;SDS011;12318;51.262;7.066;2023-04-02T15:53:23;5.80;;;1.52;;
24161;SDS011;12318;51.262;7.066;2023-04-02T16:01:39;6.40;;;2.25;;
24161;SDS011;12318;51.262;7.066;2023-04-02T16:04:24;5.78;;;2.20;;
24161;SDS011;12318;51.262;7.066;2023-04-02T16:12:44;5.97;;;2.22;;
24161;SDS011;12318;51.262;7.066;2023-04-02T16:15:17;5.35;;;2.13;;
24161;SDS011;12318;51.262;7.066;2023-04-02T16:17:58;6.97;;;2.22;;
24161;SDS011;12318;51.262;7.066;2023-04-02T16:20:30;3.70;;;2.10;;
24161;SDS011;12318;51.262;7.066;2023-04-02T16:23:01;4.18;;;2.53;;
24161;SDS011;12318;51.262;7.066;2023-04-02T16:25:57;5.57;;;2.00;;
24161;SDS011;12318;51.262;7.066;2023-04-02T16:28:53;6.38;;;2.30;;
24161;SDS011;12318;51.262;7.066;2023-04-02T16:34:51;4.47;;;2.22;;
24161;SDS011;12318;51.262;7.066;2023-04-02T16:37:39;7.20;;;2.60;;
24161;SDS011;12318;51.262;7.066;2023-04-02T16:40:23;5.17;;;2.50;;
24161;SDS011;12318;51.262;7.066;2023-04-02T16:48:55;3.38;;;1.75;;
24161;SDS011;12318;51.262;7.066;2023-04-02T17:08:16;4.20;;;2.00;;
24161;SDS011;12318;51.262;7.066;2023-04-02T17:11:12;4.15;;;2.00;;
24161;SDS011;12318;51.262;7.066;2023-04-02T17:14:04;5.03;;;1.90;;
24161;SDS011;12318;51.262;7.066;2023-04-02T17:16:43;4.80;;;1.98;;
24161;SDS011;12318;51.262;7.066;2023-04-02T17:19:11;4.88;;;2.13;;
24161;SDS011;12318;51.262;7.066;2023-04-02T17:21:44;3.47;;;1.90;;
24161;SDS011;12318;51.262;7.066;2023-04-02T17:26:42;5.03;;;1.70;;
24161;SDS011;12318;51.262;7.066;2023-04-02T17:29:16;5.32;;;1.80;;
24161;SDS011;12318;51.262;7.066;2023-04-02T17:32:11;5.55;;;2.30;;
24161;SDS011;12318;51.262;7.066;2023-04-02T17:34:46;5.22;;;2.13;;
24161;SDS011;12318;51.262;7.066;2023-04-02T17:37:19;8.50;;;2.30;;
24161;SDS011;12318;51.262;7.066;2023-04-02T17:42:31;22.17;;;2.15;;
24161;SDS011;12318;51.262;7.066;2023-04-02T17:47:40;5.85;;;2.40;;
24161;SDS011;12318;51.262;7.066;2023-04-02T18:04:16;4.53;;;2.30;;
24161;SDS011;12318;51.262;7.066;2023-04-02T18:12:56;6.57;;;2.30;;
24161;SDS011;12318;51.262;7.066;2023-04-02T18:18:10;3.78;;;1.98;;
24161;SDS011;12318;51.262;7.066;2023-04-02T18:20:59;3.13;;;1.70;;
24161;SDS011;12318;51.262;7.066;2023-04-02T18:23:38;5.80;;;2.10;;
24161;SDS011;12318;51.262;7.066;2023-04-02T18:26:31;11.07;;;2.20;;
24161;SDS011;12318;51.262;7.066;2023-04-02T18:29:29;2.63;;;1.67;;
24161;SDS011;12318;51.262;7.066;2023-04-02T18:32:17;6.07;;;2.55;;
24161;SDS011;12318;51.262;7.066;2023-04-02T18:51:13;6.05;;;2.60;;
24161;SDS011;12318;51.262;7.066;2023-04-02T18:53:43;7.88;;;2.00;;
24161;SDS011;12318;51.262;7.066;2023-04-02T18:56:12;6.80;;;2.45;;
24161;SDS011;12318;51.262;7.066;2023-04-02T19:01:25;5.32;;;2.58;;
24161;SDS011;12318;51.262;7.066;2023-04-02T19:03:56;5.45;;;2.40;;
24161;SDS011;12318;51.262;7.066;2023-04-02T19:06:34;6.07;;;2.60;;
24161;SDS011;12318;51.262;7.066;2023-04-02T19:09:03;5.03;;;2.30;;
24161;SDS011;12318;51.262;7.066;2023-04-02T19:11:36;6.25;;;2.70;;
24161;SDS011;12318;51.262;7.066;2023-04-02T19:14:11;9.30;;;2.45;;
24161;SDS011;12318;51.262;7.066;2023-04-02T19:16:43;6.57;;;2.58;;
24161;SDS011;12318;51.262;7.066;2023-04-02T19:19:22;7.60;;;2.88;;
24161;SDS011;12318;51.262;7.066;2023-04-02T19:35:28;7.57;;;3.17;;
24161;SDS011;12318;51.262;7.066;2023-04-02T19:43:41;7.57;;;3.92;;
24161;SDS011;12318;51.262;7.066;2023-04-02T19:46:07;6.75;;;3.40;;
24161;SDS011;12318;51.262;7.066;2023-04-02T19:48:39;7.20;;;3.28;;
24161;SDS011;12318;51.262;7.066;2023-04-02T19:51:24;8.27;;;3.75;;
24161;SDS011;12318;51.262;7.066;2023-04-02T19:53:50;6.35;;;3.40;;
24161;SDS011;12318;51.262;7.066;2023-04-02T19:56:15;6.85;;;3.97;;
24161;SDS011;12318;51.262;7.066;2023-04-02T19:58:41;7.70;;;3.67;;
24161;SDS011;12318;51.262;7.066;2023-04-02T20:01:07;8.07;;;4.18;;
24161;SDS011;12318;51.262;7.066;2023-04-02T20:03:33;9.50;;;4.40;;
24161;SDS011;12318;51.262;7.066;2023-04-02T20:05:59;11.75;;;4.90;;
24161;SDS011;12318;51.262;7.066;2023-04-02T20:08:25;8.88;;;4.53;;
24161;SDS011;12318;51.262;7.066;2023-04-02T20:10:51;13.07;;;6.18;;
24161;SDS011;12318;51.262;7.066;2023-04-02T20:13:17;7.90;;;4.80;;
24161;SDS011;12318;51.262;7.066;2023-04-02T20:15:43;9.02;;;4.80;;
24161;SDS011;12318;51.262;7.066;2023-04-02T20:18:09;10.30;;;5.63;;
24161;SDS011;12318;51.262;7.066;2023-04-02T20:20:35;12.95;;;6.35;;
24161;SDS011;12318;51.262;7.066;2023-04-02T20:23:03;15.00;;;7.00;;
24161;SDS011;12318;51.262;7.066;2023-04-02T20:25:29;19.00;;;7.95;;
24161;SDS011;12318;51.262;7.066;2023-04-02T20:27:55;16.33;;;7.30;;
24161;SDS011;12318;51.262;7.066;2023-04-02T20:30:21;11.95;;;6.00;;
24161;SDS011;12318;51.262;7.066;2023-04-02T20:32:47;14.63;;;6.40;;
24161;SDS011;12318;51.262;7.066;2023-04-02T20:35:13;11.57;;;5.07;;
24161;SDS011;12318;51.262;7.066;2023-04-02T20:37:38;10.25;;;4.97;;
24161;SDS011;12318;51.262;7.066;2023-04-02T20:40:06;9.15;;;4.97;;
24161;SDS011;12318;51.262;7.066;2023-04-02T20:42:33;9.85;;;5.22;;
24161;SDS011;12318;51.262;7.066;2023-04-02T20:44:58;11.68;;;6.35;;
24161;SDS011;12318;51.262;7.066;2023-04-02T20:47:24;11.32;;;6.20;;
24161;SDS011;12318;51.262;7.066;2023-04-02T20:49:50;12.73;;;6.60;;
24161;SDS011;12318;51.262;7.066;2023-04-02T20:52:16;10.90;;;5.57;;
24161;SDS011;12318;51.262;7.066;2023-04-02T20:54:42;12.40;;;6.78;;
24161;SDS011;12318;51.262;7.066;2023-04-02T20:57:07;13.40;;;7.15;;